Time;durP1;ratioP1;P1;durP2;ratioP2;P2;SDS_P1;SDS_P2;PMS_P1;PMS_P2;Temp;Humidity;BMP_temperature;BMP_pressure;BME280_temperature;BME280_humidity;BME280_pressure;Samples;Min_cycle;Max_cycle;Signal;HPM_P1;HPM_P2
2022/12/04 00:02:04;;;;;;;50.60;17.05;;;;;;;1.34;100.00;99569.81;4244723;33;20067;-71
2022/12/04 00:04:31;;;;;;;60.47;20.50;;;;;;;1.74;100.00;99590.91;4250005;33;20098;-71
2022/12/04 00:06:57;;;;;;;53.92;19.90;;;;;;;1.74;100.00;99596.22;4247722;33;20195;-70
2022/12/04 00:09:23;;;;;;;54.95;22.05;;;;;;;1.85;100.00;99587.00;4252301;33;20062;-71
2022/12/04 00:11:50;;;;;;;51.42;20.08;;;;;;;1.85;100.00;99581.69;4251759;33;20042;-71
2022/12/04 00:14:16;;;;;;;53.47;20.98;;;;;;;1.87;100.00;99590.31;4252146;33;20060;-71
2022/12/04 00:16:42;;;;;;;65.00;20.92;;;;;;;1.38;100.00;99544.56;4252299;33;20038;-71
2022/12/04 00:19:09;;;;;;;56.08;17.30;;;;;;;1.62;100.00;99577.25;4250884;33;20089;-69
2022/12/04 00:21:35;;;;;;;59.03;21.33;;;;;;;1.81;100.00;99576.75;4250080;33;20075;-71
2022/12/04 00:24:02;;;;;;;49.17;18.60;;;;;;;1.66;100.00;99586.50;4252637;33;20064;-70
2022/12/04 00:26:30;;;;;;;55.33;20.12;;;;;;;1.51;100.00;99580.31;4245951;33;20046;-71
2022/12/04 00:28:57;;;;;;;49.20;17.70;;;;;;;1.71;100.00;99591.25;4235093;33;20440;-71
2022/12/04 00:31:26;;;;;;;51.22;17.95;;;;;;;1.84;100.00;99593.34;4234956;33;20034;-70
2022/12/04 00:33:53;;;;;;;58.75;20.40;;;;;;;2.05;100.00;99598.78;4215967;33;20063;-71
2022/12/04 00:36:22;;;;;;;53.20;16.83;;;;;;;1.70;100.00;99566.56;4208358;34;20133;-71
2022/12/04 00:38:48;;;;;;;60.05;21.20;;;;;;;1.55;100.00;99566.50;4210420;34;20059;-70
2022/12/04 00:41:17;;;;;;;47.62;17.33;;;;;;;1.18;100.00;99564.59;4207542;34;20054;-70
2022/12/04 00:43:47;;;;;;;48.42;16.67;;;;;;;1.77;100.00;99606.47;4209421;34;20460;-71
2022/12/04 00:46:20;;;;;;;56.83;19.30;;;;;;;1.55;100.00;99593.06;4209579;34;20084;-71
2022/12/04 00:48:47;;;;;;;52.03;19.33;;;;;;;1.50;100.00;99573.34;4208365;34;20726;-70
2022/12/04 00:51:17;;;;;;;61.88;22.45;;;;;;;1.58;100.00;99599.81;4207938;34;20418;-70
2022/12/04 00:53:44;;;;;;;48.95;16.73;;;;;;;1.65;100.00;99597.31;4222482;34;20974;-71
2022/12/04 00:56:14;;;;;;;45.45;16.60;;;;;;;1.83;100.00;99597.00;4221711;34;20065;-71
2022/12/04 00:58:41;;;;;;;43.22;17.35;;;;;;;1.82;100.00;99593.53;4223740;33;20074;-71
2022/12/04 03:02:55;;;;;;;38.10;14.23;;;;;;;2.02;100.00;99535.37;4288034;28;20082;-70
2022/12/04 03:05:31;;;;;;;35.95;13.95;;;;;;;2.04;100.00;99536.03;4269769;33;20111;-69
2022/12/04 03:08:03;;;;;;;30.52;12.88;;;;;;;2.04;100.00;99533.38;4257316;33;20125;-69
2022/12/04 03:10:36;;;;;;;37.70;16.25;;;;;;;2.17;100.00;99522.94;4254395;33;20165;-68
2022/12/04 03:13:17;;;;;;;43.65;16.37;;;;;;;1.99;100.00;99514.50;4255083;33;20958;-69
2022/12/04 03:15:49;;;;;;;37.00;15.85;;;;;;;1.86;100.00;99520.44;4255393;33;20082;-69
2022/12/04 03:18:19;;;;;;;47.10;15.52;;;;;;;2.07;100.00;99538.31;4254893;33;20170;-69
2022/12/04 03:20:52;;;;;;;42.95;16.50;;;;;;;1.90;100.00;99526.22;4267867;33;20096;-69
2022/12/04 03:23:25;;;;;;;47.03;15.80;;;;;;;1.93;100.00;99531.16;4269024;33;20081;-69
2022/12/04 03:26:11;;;;;;;43.53;15.82;;;;;;;2.03;100.00;99513.13;4238263;33;20064;-69
2022/12/04 03:28:58;;;;;;;38.50;15.93;;;;;;;2.08;100.00;99526.69;4241019;33;20049;-71
2022/12/04 03:32:00;;;;;;;32.20;11.07;;;;;;;1.89;100.00;99504.16;4209508;34;20448;-69
2022/12/04 03:35:08;;;;;;;37.78;14.05;;;;;;;1.78;100.00;99513.37;4215517;34;20434;-70
2022/12/04 03:37:43;;;;;;;35.72;14.68;;;;;;;2.17;100.00;99536.22;4204227;34;20064;-69
2022/12/04 03:40:19;;;;;;;36.30;13.55;;;;;;;2.34;100.00;99544.00;4224345;34;20439;-70
2022/12/04 03:43:15;;;;;;;42.15;15.40;;;;;;;1.74;100.00;99469.63;4224131;34;20050;-70
2022/12/04 03:45:48;;;;;;;41.53;14.82;;;;;;;1.97;100.00;99506.72;4224196;34;20031;-68
2022/12/04 03:48:21;;;;;;;35.15;15.20;;;;;;;2.29;100.00;99543.75;4224477;34;20085;-70
2022/12/04 03:50:58;;;;;;;;;;;;;;;2.16;100.00;99547.84;4225130;34;20038;-69
2022/12/04 03:53:39;;;;;;;41.58;14.75;;;;;;;2.30;100.00;99542.75;4222493;33;19946;-68
2022/12/04 03:56:20;;;;;;;41.35;14.87;;;;;;;2.45;100.00;99540.91;4227704;33;20349;-70
2022/12/04 03:59:01;;;;;;;39.00;15.10;;;;;;;2.10;100.00;99513.22;4251087;33;20046;-70
2022/12/04 04:01:34;;;;;;;33.17;12.45;;;;;;;2.02;100.00;99535.37;4253655;33;20066;-70
2022/12/04 04:04:06;;;;;;;49.70;17.33;;;;;;;2.09;100.00;99541.63;4268778;33;20194;-70
2022/12/04 04:06:45;;;;;;;33.03;12.32;;;;;;;1.85;100.00;99528.59;4267082;33;20080;-69
2022/12/04 04:09:20;;;;;;;35.95;13.40;;;;;;;1.86;100.00;99540.88;4268651;33;20057;-70
2022/12/04 04:11:51;;;;;;;26.45;9.63;;;;;;;1.88;100.00;99517.59;4249923;33;20035;-70
2022/12/04 04:25:59;;;;;;;43.10;15.50;;;;;;;2.10;100.00;99537.94;4222908;34;20890;-70
2022/12/04 04:28:34;;;;;;;46.92;17.25;;;;;;;1.79;100.00;99536.28;4223075;34;20023;-69
2022/12/04 04:31:24;;;;;;;33.83;15.57;;;;;;;1.79;100.00;99541.59;4223700;34;20076;-70
2022/12/04 04:34:07;;;;;;;29.23;13.02;;;;;;;1.95;100.00;99539.78;4225767;33;20056;-70
2022/12/04 04:36:42;;;;;;;30.83;13.20;;;;;;;2.03;100.00;99550.31;4250967;33;20054;-70
2022/12/04 04:39:33;;;;;;;34.13;13.15;;;;;;;2.13;100.00;99542.91;4251408;33;20495;-71
2022/12/04 04:42:18;;;;;;;37.08;16.15;;;;;;;2.03;100.00;99542.34;4244578;33;20089;-71
2022/12/04 04:45:02;;;;;;;30.33;12.52;;;;;;;2.08;100.00;99529.34;4250811;33;20334;-71
2022/12/04 04:47:37;;;;;;;31.60;13.02;;;;;;;2.11;100.00;99525.50;4237960;33;20444;-71
2022/12/04 04:50:07;;;;;;;35.63;14.32;;;;;;;1.75;100.00;99503.09;4261944;33;20037;-71
2022/12/04 04:52:38;;;;;;;31.80;14.90;;;;;;;1.56;100.00;99508.94;4268288;33;20336;-72
2022/12/04 04:55:05;;;;;;;32.80;13.48;;;;;;;1.49;100.00;99530.06;4266476;33;20397;-70
2022/12/04 04:57:34;;;;;;;34.90;14.73;;;;;;;1.56;100.00;99527.50;4268123;33;20054;-71
2022/12/04 05:00:15;;;;;;;32.90;14.60;;;;;;;1.38;100.00;99538.44;4268033;33;20091;-70
2022/12/04 05:02:41;;;;;;;37.90;15.18;;;;;;;1.39;100.00;99509.09;4262394;33;20057;-69
2022/12/04 05:05:09;;;;;;;35.65;14.60;;;;;;;1.31;100.00;99514.47;4255126;33;20278;-71
2022/12/04 05:07:35;;;;;;;38.47;15.23;;;;;;;1.90;100.00;99547.44;4251412;33;20167;-70
2022/12/04 05:10:02;;;;;;;37.78;15.35;;;;;;;1.36;100.00;99514.75;4251738;33;20050;-71
2022/12/04 05:12:29;;;;;;;36.83;14.13;;;;;;;1.59;100.00;99548.41;4248845;33;20086;-71
2022/12/04 05:14:55;;;;;;;32.97;12.20;;;;;;;1.80;100.00;99553.88;4249426;33;20060;-71
2022/12/04 05:17:22;;;;;;;32.17;13.32;;;;;;;1.65;100.00;99550.34;4251276;33;20053;-71
2022/12/04 05:19:55;;;;;;;39.10;16.02;;;;;;;1.69;100.00;99551.66;4223405;34;20440;-72
2022/12/04 05:22:31;;;;;;;27.85;11.98;;;;;;;1.38;100.00;99523.34;4223100;33;20065;-70
2022/12/04 05:24:58;;;;;;;29.92;12.63;;;;;;;1.77;100.00;99545.41;4222649;34;20100;-71
2022/12/04 05:27:26;;;;;;;33.35;10.90;;;;;;;1.75;100.00;99529.66;4195657;34;20110;-72
2022/12/04 05:29:53;;;;;;;48.13;16.20;;;;;;;1.66;100.00;99525.44;4200644;34;20047;-71
2022/12/04 05:32:28;;;;;;;45.10;14.70;;;;;;;1.66;100.00;99520.16;4208135;34;20062;-71
2022/12/04 05:34:55;;;;;;;47.80;15.80;;;;;;;1.51;100.00;99528.06;4199881;34;20061;-72
2022/12/04 05:37:23;;;;;;;36.08;14.93;;;;;;;1.72;100.00;99526.56;4209292;34;20068;-71
2022/12/04 05:39:49;;;;;;;37.03;13.30;;;;;;;1.37;100.00;99503.13;4213018;34;20096;-70
2022/12/04 05:42:16;;;;;;;47.28;16.58;;;;;;;1.41;100.00;99499.09;4221869;34;20210;-71
2022/12/04 05:44:42;;;;;;;47.17;16.75;;;;;;;1.21;100.00;99527.13;4222627;34;20097;-71
2022/12/04 05:47:09;;;;;;;45.65;16.55;;;;;;;1.56;100.00;99524.88;4223244;34;20757;-71
2022/12/04 05:49:36;;;;;;;37.08;14.70;;;;;;;1.38;100.00;99518.03;4223133;34;20121;-72
2022/12/04 05:52:04;;;;;;;32.03;14.02;;;;;;;1.40;100.00;99488.66;4234574;33;20050;-69
2022/12/04 05:54:30;;;;;;;38.55;14.35;;;;;;;1.97;100.00;99525.31;4236273;33;20754;-71
2022/12/04 05:56:57;;;;;;;40.58;13.27;;;;;;;1.64;100.00;99508.84;4237059;33;20169;-71
2022/12/04 05:59:23;;;;;;;41.85;14.75;;;;;;;1.59;100.00;99521.84;4263001;33;20038;-71
2022/12/04 06:01:50;;;;;;;51.08;15.23;;;;;;;1.61;100.00;99517.19;4236826;33;20581;-71
2022/12/04 06:04:16;;;;;;;37.75;14.02;;;;;;;1.65;100.00;99523.78;4220741;34;20142;-70
2022/12/04 06:06:43;;;;;;;35.47;12.95;;;;;;;1.34;100.00;99510.59;4222829;34;20100;-70
2022/12/04 06:09:10;;;;;;;43.75;14.60;;;;;;;1.77;100.00;99484.34;4222525;34;20079;-71
2022/12/04 06:11:39;;;;;;;38.17;13.13;;;;;;;1.49;100.00;99508.03;4223001;34;20060;-70
2022/12/04 06:14:09;;;;;;;39.55;15.23;;;;;;;1.85;100.00;99541.84;4220692;34;20055;-70
2022/12/04 06:16:39;;;;;;;34.47;12.57;;;;;;;2.06;100.00;99536.69;4236223;33;20042;-70
2022/12/04 06:19:09;;;;;;;40.72;14.90;;;;;;;2.15;100.00;99535.59;4236040;33;20100;-70
2022/12/04 06:21:38;;;;;;;46.47;15.23;;;;;;;1.74;100.00;99549.28;4236836;33;20328;-70
2022/12/04 06:24:06;;;;;;;43.40;17.77;;;;;;;1.77;100.00;99554.22;4231370;33;20039;-70
2022/12/04 06:26:33;;;;;;;41.05;14.55;;;;;;;1.47;100.00;99520.63;4226513;33;20072;-71
2022/12/04 06:29:00;;;;;;;44.05;13.52;;;;;;;1.54;100.00;99553.41;4236310;33;20350;-70
2022/12/04 06:31:27;;;;;;;34.42;12.75;;;;;;;1.59;100.00;99514.69;4236881;33;20589;-70
2022/12/04 06:33:55;;;;;;;35.90;11.55;;;;;;;1.66;100.00;99528.09;4251351;33;20050;-69
2022/12/04 06:36:22;;;;;;;52.05;18.35;;;;;;;2.02;100.00;99546.00;4268375;33;20030;-71
2022/12/04 06:38:49;;;;;;;35.97;14.55;;;;;;;1.79;100.00;99544.25;4269288;33;20079;-70
2022/12/04 06:41:19;;;;;;;51.90;18.05;;;;;;;1.73;100.00;99550.25;4268572;33;20063;-70
2022/12/04 06:43:45;;;;;;;42.08;15.27;;;;;;;1.47;100.00;99547.16;4267491;33;20250;-71
2022/12/04 06:46:15;;;;;;;39.95;15.90;;;;;;;1.41;100.00;99514.22;4253516;33;20056;-69
2022/12/04 06:48:42;;;;;;;34.55;13.45;;;;;;;1.41;100.00;99549.53;4255128;33;20076;-70
2022/12/04 06:51:14;;;;;;;40.40;14.25;;;;;;;1.68;100.00;99549.97;4240030;33;20038;-69
2022/12/04 06:53:40;;;;;;;35.03;12.35;;;;;;;1.58;100.00;99549.38;4241153;33;20230;-71
2022/12/04 06:56:10;;;;;;;38.53;15.93;;;;;;;1.50;100.00;99557.41;4238324;33;20046;-70
2022/12/04 06:58:36;;;;;;;45.33;16.67;;;;;;;1.22;100.00;99550.81;4234546;33;20035;-70
2022/12/04 07:01:11;;;;;;;38.65;15.52;;;;;;;1.26;100.00;99544.16;4232233;33;20056;-69
2022/12/04 07:03:38;;;;;;;40.12;14.35;;;;;;;1.51;100.00;99559.09;4239472;33;20081;-70
2022/12/04 07:06:15;;;;;;;40.55;14.23;;;;;;;1.67;100.00;99558.94;4238731;33;20057;-69
2022/12/04 07:08:43;;;;;;;32.72;13.25;;;;;;;1.83;100.00;99562.47;4239319;33;20178;-69
2022/12/04 07:11:11;;;;;;;40.10;15.57;;;;;;;1.42;100.00;99519.34;4242561;33;20420;-70
2022/12/04 07:13:37;;;;;;;50.92;19.30;;;;;;;1.58;100.00;99546.72;4226573;34;20447;-70
2022/12/04 07:16:07;;;;;;;23.75;9.52;;;;;;;1.27;100.00;99550.28;4225546;34;20096;-69
2022/12/04 07:18:34;;;;;;;35.85;12.75;;;;;;;1.64;100.00;99559.28;4213178;34;20050;-69
2022/12/04 07:21:10;;;;;;;43.78;14.10;;;;;;;1.57;100.00;99556.53;4213200;34;20057;-70
2022/12/04 07:23:37;;;;;;;38.63;17.37;;;;;;;1.62;100.00;99558.66;4226390;33;20027;-69
2022/12/04 07:26:05;;;;;;;31.77;12.75;;;;;;;1.11;100.00;99515.94;4229780;33;20058;-69
2022/12/04 07:28:32;;;;;;;45.97;14.50;;;;;;;0.89;100.00;99518.38;4233110;33;20084;-70
2022/12/04 07:31:06;;;;;;;34.00;12.70;;;;;;;1.44;100.00;99554.47;4234384;33;20137;-70
2022/12/04 07:33:33;;;;;;;37.50;16.00;;;;;;;1.79;100.00;99557.50;4232725;33;20069;-70
2022/12/04 07:36:02;;;;;;;36.88;13.18;;;;;;;1.39;100.00;99551.53;4236709;33;20461;-69
2022/12/04 07:38:29;;;;;;;37.28;14.00;;;;;;;1.59;100.00;99524.50;4232860;33;20076;-70
2022/12/04 07:40:58;;;;;;;38.30;14.02;;;;;;;1.61;100.00;99554.34;4200125;34;20047;-70
2022/12/04 07:43:26;;;;;;;33.78;13.75;;;;;;;1.25;100.00;99518.63;4200959;34;20413;-70
2022/12/04 07:45:52;;;;;;;32.72;13.85;;;;;;;1.48;100.00;99559.44;4223143;33;20134;-69
2022/12/04 07:48:18;;;;;;;41.78;12.52;;;;;;;1.66;100.00;99575.91;4223695;34;20038;-70
2022/12/04 07:50:46;;;;;;;32.55;12.00;;;;;;;1.41;100.00;99528.28;4225417;34;20140;-70
2022/12/04 07:53:12;;;;;;;40.55;15.57;;;;;;;1.60;100.00;99565.97;4224170;34;20426;-70
2022/12/04 07:55:39;;;;;;;33.78;11.55;;;;;;;1.44;100.00;99559.78;4225289;34;20039;-74
2022/12/04 07:58:09;;;;;;;33.15;14.60;;;;;;;1.54;100.00;99569.34;4237800;33;20034;-72
2022/12/04 08:00:45;;;;;;;39.63;13.10;;;;;;;1.76;100.00;99573.81;4241134;33;20499;-73
2022/12/04 08:03:12;;;;;;;34.67;12.05;;;;;;;1.27;100.00;99547.62;4244616;33;20415;-73
2022/12/04 08:05:38;;;;;;;34.03;14.40;;;;;;;1.76;100.00;99573.81;4246453;33;20489;-73
2022/12/04 08:08:05;;;;;;;39.33;16.08;;;;;;;1.59;100.00;99567.78;4237561;33;20075;-71
2022/12/04 08:10:31;;;;;;;35.10;13.60;;;;;;;1.41;100.00;99570.75;4224507;34;20055;-73
2022/12/04 08:12:57;;;;;;;35.88;13.60;;;;;;;1.26;100.00;99561.91;4251191;33;20050;-73
2022/12/04 08:15:24;;;;;;;30.62;14.20;;;;;;;1.48;100.00;99551.47;4224224;34;20039;-73
2022/12/04 08:17:50;;;;;;;46.92;13.45;;;;;;;1.48;100.00;99554.13;4223116;34;20031;-72
2022/12/04 08:20:17;;;;;;;30.02;12.70;;;;;;;1.63;100.00;99571.75;4222607;34;20081;-72
2022/12/04 08:22:43;;;;;;;34.08;13.57;;;;;;;1.56;100.00;99530.97;4224084;34;20222;-75
2022/12/04 08:25:10;;;;;;;35.22;12.43;;;;;;;1.48;100.00;99496.56;4224179;33;20067;-74
2022/12/04 08:27:37;;;;;;;32.47;13.68;;;;;;;1.78;100.00;99569.13;4222225;33;20140;-71
2022/12/04 08:30:07;;;;;;;40.33;14.85;;;;;;;1.92;100.00;99567.53;4224468;33;20184;-72
2022/12/04 08:32:34;;;;;;;34.72;14.32;;;;;;;1.53;100.00;99567.69;4208099;34;20028;-72
2022/12/04 08:35:01;;;;;;;24.05;9.07;;;;;;;1.84;100.00;99580.06;4210819;34;20134;-73
2022/12/04 08:37:29;;;;;;;39.30;14.32;;;;;;;1.71;100.00;99577.97;4183120;34;20034;-72
2022/12/04 08:39:57;;;;;;;31.08;13.85;;;;;;;1.76;100.00;99573.81;4181976;34;20066;-73
2022/12/04 08:42:23;;;;;;;40.95;17.27;;;;;;;1.88;100.00;99581.34;4180933;34;20407;-71
2022/12/04 08:44:55;;;;;;;;;;;;;;;1.72;100.00;99582.31;4181079;34;20052;-72
2022/12/04 08:47:23;;;;;;;35.92;12.25;;;;;;;2.10;100.00;99593.75;4196115;34;19939;-72
2022/12/04 08:49:50;;;;;;;36.47;13.05;;;;;;;2.02;100.00;99577.88;4195517;34;20237;-75
2022/12/04 08:52:16;;;;;;;39.75;16.48;;;;;;;1.61;100.00;99580.88;4189634;34;20073;-73
2022/12/04 08:54:43;;;;;;;40.92;14.63;;;;;;;1.63;100.00;99584.22;4326515;28;20082;-72
2022/12/04 08:57:11;;;;;;;34.08;14.25;;;;;;;1.81;100.00;99592.66;4176364;34;20071;-73
2022/12/04 08:59:37;;;;;;;35.80;13.27;;;;;;;1.89;100.00;99588.31;4183850;34;20446;-72
2022/12/04 09:02:04;;;;;;;36.03;13.98;;;;;;;2.11;100.00;99597.25;4184583;34;20854;-73
2022/12/04 09:04:30;;;;;;;35.28;13.77;;;;;;;2.13;100.00;99598.69;4188314;34;20125;-74
2022/12/04 09:07:00;;;;;;;38.40;15.10;;;;;;;2.14;100.00;99595.03;4185378;34;20930;-73
2022/12/04 09:09:37;;;;;;;36.35;13.77;;;;;;;2.17;100.00;99591.19;4212860;33;20117;-72
2022/12/04 09:12:09;;;;;;;41.65;15.38;;;;;;;2.00;100.00;99593.19;4240310;33;20054;-73
2022/12/04 09:14:41;;;;;;;40.38;15.65;;;;;;;1.91;100.00;99575.66;4240577;33;20064;-73
2022/12/04 09:17:15;;;;;;;34.17;15.65;;;;;;;1.65;100.00;99582.19;4241250;33;20389;-73
2022/12/04 09:20:13;;;;;;;39.28;13.25;;;;;;;1.79;100.00;99576.09;4238551;33;20064;-73
2022/12/04 09:22:43;;;;;;;36.50;14.38;;;;;;;2.31;100.00;99570.94;4239847;33;20124;-72
2022/12/04 09:25:14;;;;;;;40.65;15.68;;;;;;;2.09;100.00;99578.84;4241702;33;20101;-74
2022/12/04 09:27:44;;;;;;;39.75;16.27;;;;;;;1.64;100.00;99556.63;4206794;34;20036;-73
2022/12/04 09:30:25;;;;;;;34.58;15.27;;;;;;;2.14;100.00;99573.78;4207812;34;20051;-73
2022/12/04 09:32:53;;;;;;;36.58;15.98;;;;;;;2.12;100.00;99578.47;4215014;33;20039;-72
2022/12/04 09:35:23;;;;;;;38.78;15.95;;;;;;;2.06;100.00;99579.19;4223831;33;20080;-74
2022/12/04 09:37:51;;;;;;;37.30;17.27;;;;;;;2.32;100.00;99584.06;4215523;33;20061;-73
2022/12/04 09:40:30;;;;;;;33.70;13.60;;;;;;;1.54;100.00;99548.12;4218284;34;20068;-72
2022/12/04 09:43:12;;;;;;;32.60;14.57;;;;;;;2.21;100.00;99573.06;4223072;34;20072;-74
2022/12/04 09:45:47;;;;;;;37.67;14.65;;;;;;;2.09;100.00;99573.50;4221207;34;20453;-75
2022/12/04 09:48:16;;;;;;;35.55;14.13;;;;;;;1.93;100.00;99541.78;4225227;33;20078;-75
2022/12/04 09:50:45;;;;;;;39.15;18.23;;;;;;;2.05;100.00;99572.22;4222612;34;20063;-74
2022/12/04 09:53:23;;;;;;;32.88;13.88;;;;;;;1.95;100.00;99547.75;4222625;34;20068;-73
2022/12/04 09:55:53;;;;;;;;;;;;;;;1.85;100.00;99528.59;4221298;34;20043;-72
2022/12/04 09:58:24;;;;;;;40.17;15.70;;;;;;;2.23;100.00;99558.56;4227480;33;19993;-73
2022/12/04 10:00:53;;;;;;;25.40;10.87;;;;;;;2.07;100.00;99556.09;4239498;33;20057;-73
2022/12/04 10:03:25;;;;;;;35.25;15.70;;;;;;;2.21;100.00;99543.84;4238805;33;20515;-74
2022/12/04 10:05:57;;;;;;;35.08;14.38;;;;;;;2.02;100.00;99547.84;4234632;33;20088;-72
2022/12/04 10:08:28;;;;;;;35.10;13.45;;;;;;;1.74;100.00;99521.87;4223814;33;20139;-73
2022/12/04 10:11:07;;;;;;;25.80;12.18;;;;;;;2.25;100.00;99550.41;4224538;33;20075;-74
2022/12/04 10:13:53;;;;;;;39.42;16.23;;;;;;;2.25;100.00;99545.94;4235211;33;20484;-74
2022/12/04 10:16:28;;;;;;;32.30;12.40;;;;;;;2.35;100.00;99543.03;4220262;34;20046;-73
2022/12/04 10:19:00;;;;;;;31.17;15.27;;;;;;;2.35;100.00;99543.03;4213784;34;20075;-73
2022/12/04 10:21:41;;;;;;;;;;;;;;;2.16;100.00;99537.22;4207883;34;20434;-73
2022/12/04 10:24:16;;;;;;;34.63;15.80;;;;;;;2.16;100.00;99547.84;4207518;34;19938;-73
2022/12/04 10:26:53;;;;;;;35.10;14.82;;;;;;;2.02;100.00;99545.19;4208106;34;20074;-73
2022/12/04 10:29:25;;;;;;;35.50;16.17;;;;;;;1.96;100.00;99525.47;4205294;34;20035;-73
2022/12/04 10:31:55;;;;;;;24.77;11.02;;;;;;;1.87;100.00;99505.31;4208997;34;20065;-73
2022/12/04 10:34:25;;;;;;;34.13;11.88;;;;;;;2.20;100.00;99532.38;4198960;34;20069;-73
2022/12/04 10:36:57;;;;;;;32.55;14.50;;;;;;;2.40;100.00;99537.97;4193715;34;20115;-73
2022/12/04 10:39:40;;;;;;;34.65;15.70;;;;;;;2.17;100.00;99536.22;4190688;34;20040;-73
2022/12/04 10:42:09;;;;;;;;;;;;;;;2.09;100.00;99536.31;4191689;34;20066;-74
2022/12/04 10:44:35;;;;;;;27.27;11.38;;;;;;;2.06;100.00;99526.06;4188188;34;19934;-74
2022/12/04 10:47:03;;;;;;;25.37;11.90;;;;;;;2.00;100.00;99534.75;4189861;34;20065;-73
2022/12/04 10:49:33;;;;;;;35.00;14.13;;;;;;;2.31;100.00;99529.28;4194078;34;20036;-73
2022/12/04 10:52:00;;;;;;;29.80;13.65;;;;;;;2.18;100.00;99524.56;4194367;34;20047;-74
2022/12/04 10:54:35;;;;;;;31.40;11.85;;;;;;;1.93;100.00;99507.25;4194253;34;20434;-74
2022/12/04 10:57:09;;;;;;;31.10;16.08;;;;;;;1.65;100.00;99507.88;4193270;34;20065;-73
2022/12/04 10:59:47;;;;;;;32.90;14.50;;;;;;;2.16;100.00;99536.41;4169473;34;20056;-74
2022/12/04 11:02:27;;;;;;;37.10;15.48;;;;;;;2.23;100.00;99512.59;4174176;34;20065;-74
2022/12/04 11:05:02;;;;;;;30.88;14.15;;;;;;;2.60;100.00;99545.38;4169085;34;20060;-73
2022/12/04 11:07:35;;;;;;;36.88;14.87;;;;;;;2.58;100.00;99544.75;4171139;34;20519;-73
2022/12/04 11:10:20;;;;;;;33.17;14.20;;;;;;;2.33;100.00;99515.78;4163378;34;20386;-74
2022/12/04 11:13:01;;;;;;;42.88;16.27;;;;;;;2.64;100.00;99544.00;4165842;34;20055;-74
2022/12/04 11:15:27;;;;;;;40.70;15.02;;;;;;;2.60;100.00;99537.41;4185956;34;20069;-73
2022/12/04 11:17:54;;;;;;;39.22;17.25;;;;;;;2.50;100.00;99533.19;4192329;34;20081;-74
2022/12/04 11:20:24;;;;;;;46.13;16.95;;;;;;;1.72;100.00;99508.78;4195433;34;20066;-73
2022/12/04 11:22:56;;;;;;;47.80;18.55;;;;;;;2.14;100.00;99512.69;4196997;34;20298;-74
2022/12/04 11:25:24;;;;;;;;;;;;;;;2.01;100.00;99523.13;4198632;34;20065;-73
2022/12/04 11:27:54;;;;;;;37.95;14.43;;;;;;;2.34;100.00;99528.87;4198804;34;20273;-73
2022/12/04 11:30:28;;;;;;;42.92;17.02;;;;;;;2.24;100.00;99495.66;4204242;34;20035;-73
2022/12/04 11:32:56;;;;;;;39.90;15.02;;;;;;;2.37;100.00;99522.38;4210308;34;20060;-74
2022/12/04 11:35:25;;;;;;;37.30;15.68;;;;;;;2.02;100.00;99537.22;4206814;34;20031;-74
2022/12/04 11:38:01;;;;;;;35.80;15.13;;;;;;;2.26;100.00;99530.81;4209765;34;20054;-74
2022/12/04 11:40:28;;;;;;;32.10;13.07;;;;;;;2.36;100.00;99531.34;4211255;34;20039;-75
2022/12/04 11:43:12;;;;;;;37.95;17.42;;;;;;;2.37;100.00;99527.69;4227258;34;20054;-75
2022/12/04 11:45:40;;;;;;;39.05;16.27;;;;;;;2.30;100.00;99524.97;4227286;34;20035;-74
2022/12/04 11:48:20;;;;;;;33.88;14.90;;;;;;;2.06;100.00;99531.38;4225412;34;20039;-75
2022/12/04 11:51:19;;;;;;;42.38;15.38;;;;;;;2.34;100.00;99506.81;4228027;34;20402;-74
2022/12/04 11:54:04;;;;;;;44.58;16.05;;;;;;;2.54;100.00;99550.44;4227297;34;20181;-75
2022/12/04 11:56:38;;;;;;;37.95;17.23;;;;;;;2.63;100.00;99552.97;4227658;34;20463;-74
2022/12/04 11:59:40;;;;;;;44.67;18.83;;;;;;;2.22;100.00;99514.44;4224809;34;20109;-74
2022/12/04 12:02:31;;;;;;;39.92;15.40;;;;;;;2.38;100.00;99513.41;4388293;28;20055;-72
2022/12/04 12:05:08;;;;;;;43.28;20.10;;;;;;;2.33;100.00;99511.31;4249914;33;20360;-71
2022/12/04 12:07:57;;;;;;;40.97;17.30;;;;;;;2.37;100.00;99538.34;4253914;33;20050;-69
2022/12/04 12:10:23;;;;;;;53.58;19.42;;;;;;;2.50;100.00;99543.81;4253670;33;20070;-71
2022/12/04 12:13:02;;;;;;;49.25;16.92;;;;;;;2.14;100.00;99541.09;4212163;34;20047;-71
2022/12/04 12:15:50;;;;;;;45.78;18.17;;;;;;;2.23;100.00;99521.37;4208787;34;20065;-70
2022/12/04 12:18:28;;;;;;;50.92;21.95;;;;;;;2.27;100.00;99516.53;4210730;34;20039;-71
2022/12/04 12:21:10;;;;;;;48.58;18.42;;;;;;;2.36;100.00;99537.53;4211182;34;20043;-71
2022/12/04 12:23:47;;;;;;;44.30;17.17;;;;;;;2.13;100.00;99511.03;4215425;34;20051;-71
2022/12/04 12:26:16;;;;;;;41.10;17.65;;;;;;;2.08;100.00;99507.28;4218755;34;20035;-70
2022/12/04 12:29:19;;;;;;;44.17;18.08;;;;;;;2.10;100.00;99484.00;4222568;34;20068;-70
2022/12/04 12:32:08;;;;;;;41.37;15.57;;;;;;;2.46;100.00;99542.56;4224191;33;20072;-70
2022/12/04 12:34:38;;;;;;;41.00;15.93;;;;;;;2.65;100.00;99540.31;4224408;34;20085;-70
2022/12/04 12:37:23;;;;;;;46.97;17.40;;;;;;;2.57;100.00;99537.75;4223388;34;20107;-69
2022/12/04 12:39:49;;;;;;;39.38;16.20;;;;;;;2.51;100.00;99534.84;4222203;34;20412;-69
2022/12/04 12:42:30;;;;;;;40.55;18.77;;;;;;;2.72;100.00;99527.94;4213834;34;20214;-70
2022/12/04 12:45:14;;;;;;;43.83;18.33;;;;;;;2.76;100.00;99531.88;4247903;33;20093;-71
2022/12/04 12:47:48;;;;;;;51.63;18.75;;;;;;;2.09;100.00;99530.16;4255856;33;20079;-70
2022/12/04 12:50:25;;;;;;;43.30;16.87;;;;;;;2.01;100.00;99528.44;4252970;33;20064;-71
2022/12/04 12:53:00;;;;;;;49.60;19.42;;;;;;;2.17;100.00;99495.53;4251826;33;20054;-70
2022/12/04 12:55:30;;;;;;;55.55;22.25;;;;;;;2.48;100.00;99524.56;4254646;33;20076;-70
2022/12/04 12:58:20;;;;;;;39.28;19.20;;;;;;;2.02;100.00;99492.06;4254185;33;20095;-71
2022/12/04 13:00:55;;;;;;;43.92;15.00;;;;;;;2.42;100.00;99525.31;4245660;33;20050;-69
2022/12/04 13:03:51;;;;;;;53.15;18.95;;;;;;;2.47;100.00;99533.59;4229005;33;20066;-71
2022/12/04 13:06:23;;;;;;;50.55;19.10;;;;;;;2.35;100.00;99493.34;4236055;33;20394;-69
2022/12/04 13:09:09;;;;;;;55.65;23.35;;;;;;;2.41;100.00;99488.28;4215176;34;20146;-71
2022/12/04 13:11:37;;;;;;;59.95;19.02;;;;;;;2.25;100.00;99514.06;4181281;34;20403;-73
2022/12/04 13:14:04;;;;;;;54.80;21.02;;;;;;;2.33;100.00;99515.78;4195697;34;20051;-72
2022/12/04 13:16:40;;;;;;;62.33;16.90;;;;;;;2.03;100.00;99510.47;4193761;34;20077;-71
2022/12/04 13:19:11;;;;;;;48.67;19.23;;;;;;;2.38;100.00;99516.06;4188970;34;20329;-71
2022/12/04 13:21:49;;;;;;;40.85;16.58;;;;;;;2.13;100.00;99524.31;4193528;34;20120;-70
2022/12/04 13:24:22;;;;;;;55.83;22.92;;;;;;;2.18;100.00;99513.94;4192304;34;20043;-70
2022/12/04 13:27:01;;;;;;;31.30;12.45;;;;;;;1.76;100.00;99520.69;4179746;34;20079;-69
2022/12/04 13:29:49;;;;;;;46.03;16.05;;;;;;;2.22;100.00;99514.44;4179718;34;20141;-70
2022/12/04 13:32:32;;;;;;;46.70;18.27;;;;;;;2.31;100.00;99507.19;4180659;34;20195;-70
2022/12/04 13:35:11;;;;;;;52.90;19.50;;;;;;;2.01;100.00;99523.13;4180265;34;20427;-69
2022/12/04 13:38:05;;;;;;;50.55;18.70;;;;;;;1.95;100.00;99519.34;4181702;34;20091;-69
2022/12/04 13:40:37;;;;;;;49.88;19.45;;;;;;;2.09;100.00;99504.44;4198828;34;20061;-69
2022/12/04 13:43:40;;;;;;;56.45;20.25;;;;;;;1.86;100.00;99509.00;4218624;33;20035;-70
2022/12/04 13:46:24;;;;;;;44.83;19.10;;;;;;;1.96;100.00;99506.88;4223295;34;20361;-70
2022/12/04 13:48:50;;;;;;;49.65;18.33;;;;;;;2.02;100.00;99510.66;4223757;34;20994;-70
2022/12/04 13:51:34;;;;;;;43.75;18.70;;;;;;;1.76;100.00;99477.41;4223896;34;20108;-69
2022/12/04 13:54:18;;;;;;;46.92;19.55;;;;;;;1.73;100.00;99467.16;4222606;34;20039;-68
2022/12/04 13:56:48;;;;;;;56.72;21.77;;;;;;;1.98;100.00;99481.00;4224096;33;20047;-71
2022/12/04 13:59:26;;;;;;;65.45;22.10;;;;;;;1.70;100.00;99510.78;4253963;33;20338;-70